createdAt,value
2022-11-28T00:04:14.409Z,7.72
2022-11-28T00:09:18.920Z,7.32
2022-11-28T00:14:23.052Z,8.32
2022-11-28T00:19:25.836Z,5.70
2022-11-28T00:24:28.624Z,7.10
2022-11-28T00:29:32.780Z,5.53
2022-11-28T00:34:35.630Z,10.15
2022-11-28T00:39:38.421Z,5.60
2022-11-28T00:44:42.700Z,6.07
2022-11-28T00:49:45.713Z,5.70
2022-11-28T00:54:48.496Z,6.85
2022-11-28T00:59:52.628Z,7.03
2022-11-28T01:04:55.376Z,6.75
2022-11-28T01:09:58.136Z,5.97
2022-11-28T01:15:02.231Z,6.65
2022-11-28T01:20:07.140Z,8.60
2022-11-28T01:25:09.972Z,4.03
2022-11-28T01:30:14.420Z,6.90
2022-11-28T01:35:17.318Z,5.65
2022-11-28T01:40:20.071Z,5.85
2022-11-28T01:45:26.685Z,8.35
2022-11-28T01:50:30.622Z,5.07
2022-11-28T01:55:38.781Z,5.15
2022-11-28T02:00:42.947Z,6.65
2022-11-28T02:05:46.777Z,6.70
2022-11-28T02:11:07.508Z,5.53
2022-11-28T02:16:31.742Z,6.35
2022-11-28T02:21:48.929Z,7.78
2022-11-28T02:27:09.194Z,8.55
2022-11-28T02:32:23.414Z,8.73
2022-11-28T02:37:35.755Z,5.28
2022-11-28T02:42:52.596Z,4.72
2022-11-28T02:48:02.836Z,7.75
2022-11-28T02:53:09.552Z,6.25
2022-11-28T02:58:13.361Z,7.00
2022-11-28T03:03:43.570Z,6.13
2022-11-28T03:08:58.189Z,8.57
2022-11-28T03:14:12.786Z,8.15
2022-11-28T03:19:23.143Z,6.35
2022-11-28T03:24:33.987Z,6.88
2022-11-28T03:29:42.597Z,7.00
2022-11-28T03:34:50.069Z,5.97
2022-11-28T03:39:59.552Z,7.25
2022-11-28T03:45:07.951Z,7.45
2022-11-28T03:50:16.898Z,7.65
2022-11-28T03:55:24.575Z,8.93
2022-11-28T04:00:27.579Z,8.77
2022-11-28T04:05:42.739Z,10.02
2022-11-28T04:10:49.955Z,15.65
2022-11-28T04:15:58.311Z,8.23
2022-11-28T04:21:10.056Z,10.98
2022-11-28T04:26:17.711Z,10.02
2022-11-28T04:31:24.296Z,12.45
2022-11-28T04:36:29.994Z,9.40
2022-11-28T04:41:36.106Z,11.98
2022-11-28T04:46:43.267Z,8.88
2022-11-28T04:51:53.819Z,8.70
2022-11-28T04:57:01.947Z,10.82
2022-11-28T05:02:06.827Z,9.23
2022-11-28T05:07:11.375Z,10.50
2022-11-28T05:12:14.218Z,10.70
2022-11-28T05:17:17.029Z,13.02
2022-11-28T05:22:21.163Z,11.65
2022-11-28T05:27:23.907Z,12.93
2022-11-28T05:32:26.683Z,11.98
2022-11-28T05:37:30.904Z,10.50
2022-11-28T05:42:34.383Z,10.65
2022-11-28T05:47:37.285Z,11.18
2022-11-28T05:52:41.382Z,8.48
2022-11-28T05:57:44.100Z,10.15
2022-11-28T06:02:46.883Z,13.85
2022-11-28T06:07:51.021Z,12.93
2022-11-28T06:12:53.791Z,10.70
2022-11-28T06:17:56.934Z,10.43
2022-11-28T06:23:01.019Z,10.57
2022-11-28T06:28:03.771Z,12.32
2022-11-28T06:33:06.548Z,11.95
2022-11-28T06:38:14.195Z,16.20
2022-11-28T06:43:17.314Z,12.57
2022-11-28T06:48:20.322Z,14.32
2022-11-28T06:53:28.655Z,12.98
2022-11-28T06:58:34.704Z,13.55
2022-11-28T07:03:37.763Z,14.35
2022-11-28T07:08:42.318Z,15.82
2022-11-28T07:13:46.611Z,18.73
2022-11-28T07:18:49.796Z,18.90
2022-11-28T07:23:54.236Z,19.73
2022-11-28T07:28:58.245Z,16.80
2022-11-28T07:34:04.175Z,20.98
2022-11-28T07:39:09.609Z,17.30
2022-11-28T07:44:13.010Z,15.95
2022-11-28T07:49:16.070Z,16.65
2022-11-28T07:54:20.208Z,17.30
2022-11-28T07:59:22.947Z,14.95
2022-11-28T08:04:25.745Z,17.13
2022-11-28T08:09:30.063Z,16.42
2022-11-28T08:14:32.853Z,16.88
2022-11-28T08:19:36.732Z,15.35
2022-11-28T08:24:41.089Z,14.27
2022-11-28T08:29:46.170Z,14.15
2022-11-28T08:34:52.056Z,16.33
2022-11-28T08:39:56.130Z,12.05
2022-11-28T08:44:58.894Z,14.90
2022-11-28T08:50:01.689Z,17.70
2022-11-28T08:55:06.528Z,16.83
2022-11-28T09:00:10.185Z,16.70
2022-11-28T09:05:12.920Z,23.40
2022-11-28T09:10:17.325Z,21.52
2022-11-28T09:15:20.128Z,18.95
2022-11-28T09:20:22.860Z,19.30
2022-11-28T09:25:26.979Z,21.65
2022-11-28T09:30:29.779Z,18.80
2022-11-28T09:35:32.585Z,22.40
2022-11-28T09:40:39.878Z,23.73
2022-11-28T09:45:43.508Z,17.38
2022-11-28T09:50:47.859Z,20.38
2022-11-28T09:55:55.600Z,23.08
2022-11-28T10:01:12.207Z,20.67
2022-11-28T10:06:21.471Z,18.77
2022-11-28T10:11:43.295Z,23.30
2022-11-28T10:16:56.316Z,19.03
2022-11-28T10:22:01.927Z,22.38
2022-11-28T10:27:07.657Z,23.40
2022-11-28T10:32:15.369Z,23.45
2022-11-28T10:37:23.279Z,22.23
2022-11-28T10:42:32.831Z,22.20
2022-11-28T10:47:54.799Z,24.45
2022-11-28T10:53:01.764Z,24.00
2022-11-28T10:58:13.789Z,21.70
2022-11-28T11:03:18.884Z,21.70
2022-11-28T11:08:23.541Z,18.80
2022-11-28T11:13:29.990Z,24.67
2022-11-28T11:18:36.126Z,21.90
2022-11-28T11:23:38.936Z,22.58
2022-11-28T11:28:46.048Z,22.55
2022-11-28T11:33:51.424Z,16.02
2022-11-28T11:39:06.960Z,20.33
2022-11-28T11:44:30.640Z,18.15
2022-11-28T11:49:35.188Z,22.13
2022-11-28T11:54:37.916Z,18.23
2022-11-28T11:59:46.802Z,16.73
2022-11-28T12:04:55.672Z,20.58
2022-11-28T12:10:04.384Z,25.15
2022-11-28T12:15:18.307Z,20.27
2022-11-28T12:20:38.858Z,22.60
2022-11-28T12:25:48.276Z,16.95
2022-11-28T12:31:04.020Z,23.45
2022-11-28T12:36:14.498Z,21.67
2022-11-28T12:41:33.169Z,19.85
2022-11-28T12:46:47.266Z,20.52
2022-11-28T12:52:04.008Z,19.15
2022-11-28T12:57:12.576Z,17.95
2022-11-28T13:02:28.678Z,18.55
2022-11-28T13:07:43.894Z,23.80
2022-11-28T13:12:56.960Z,25.38
2022-11-28T13:18:12.566Z,20.50
2022-11-28T13:23:21.639Z,19.13
2022-11-28T13:28:32.113Z,22.83
2022-11-28T13:33:49.278Z,20.13
2022-11-28T13:39:11.688Z,21.73
2022-11-28T13:44:22.498Z,19.92
2022-11-28T13:49:30.542Z,22.67
2022-11-28T13:54:46.304Z,25.08
2022-11-28T13:59:53.693Z,24.90
2022-11-28T14:04:57.849Z,28.10
2022-11-28T14:10:23.043Z,24.55
2022-11-28T14:15:32.347Z,26.85
2022-11-28T14:20:45.700Z,24.50
2022-11-28T14:25:50.940Z,23.30
2022-11-28T14:31:05.121Z,26.33
2022-11-28T14:36:35.931Z,28.80
2022-11-28T14:42:36.762Z,25.70
2022-11-28T14:47:42.494Z,20.63
2022-11-28T14:52:48.053Z,27.38
2022-11-28T14:57:57.439Z,23.63
2022-11-28T15:03:15.500Z,23.95
2022-11-28T15:08:41.455Z,22.70
2022-11-28T15:13:58.297Z,26.15
2022-11-28T15:19:07.427Z,27.02
2022-11-28T15:24:23.865Z,27.52
2022-11-28T15:29:29.185Z,31.15
2022-11-28T15:34:34.083Z,30.83
2022-11-28T15:39:40.663Z,28.58
2022-11-28T15:44:45.277Z,33.60
2022-11-28T15:50:00.021Z,35.88
2022-11-28T15:55:16.006Z,32.72
2022-11-28T16:00:21.879Z,38.38
2022-11-28T16:05:24.958Z,37.58
2022-11-28T16:10:33.727Z,38.25
2022-11-28T16:15:37.455Z,37.45
2022-11-28T16:20:40.276Z,32.80
2022-11-28T16:25:44.746Z,35.05
2022-11-28T16:30:51.087Z,34.55
2022-11-28T16:35:53.880Z,32.72
2022-11-28T16:41:01.744Z,33.40
2022-11-28T16:46:07.400Z,37.10
2022-11-28T16:51:35.251Z,37.70
2022-11-28T16:56:45.382Z,36.33
2022-11-28T17:01:49.517Z,35.63
2022-11-28T17:06:53.896Z,35.95
2022-11-28T17:12:04.215Z,33.78
2022-11-28T17:17:13.613Z,41.35
2022-11-28T17:22:19.307Z,32.28
2022-11-28T17:27:23.483Z,37.38
2022-11-28T17:32:26.280Z,38.97
2022-11-28T17:37:29.233Z,44.35
2022-11-28T17:42:33.380Z,44.65
2022-11-28T17:47:36.335Z,42.85
2022-11-28T17:52:39.080Z,42.83
2022-11-28T17:57:43.902Z,41.83
2022-11-28T18:02:47.501Z,43.25
2022-11-28T18:07:50.280Z,38.22
2022-11-28T18:12:55.431Z,46.40
2022-11-28T18:18:00.609Z,43.30
2022-11-28T18:23:03.650Z,52.30
2022-11-28T18:28:07.884Z,47.35
2022-11-28T18:33:11.079Z,44.50
2022-11-28T18:38:14.344Z,43.67
2022-11-28T18:43:18.469Z,42.30
2022-11-28T18:48:21.230Z,42.33
2022-11-28T18:53:24.104Z,42.10
2022-11-28T18:58:28.660Z,39.80
2022-11-28T19:03:31.481Z,41.83
2022-11-28T19:08:34.320Z,42.63
2022-11-28T19:13:39.237Z,38.38
2022-11-28T19:18:42.639Z,44.50
2022-11-28T19:23:47.092Z,43.45
2022-11-28T19:28:51.625Z,39.15
2022-11-28T19:34:00.846Z,43.50
2022-11-28T19:39:06.976Z,38.08
2022-11-28T19:44:12.669Z,42.40
2022-11-28T19:49:19.585Z,36.33
2022-11-28T19:54:22.761Z,41.65
2022-11-28T19:59:28.828Z,38.45
2022-11-28T20:04:31.997Z,41.65
2022-11-28T20:09:34.843Z,35.95
2022-11-28T20:14:39.410Z,40.20
2022-11-28T20:19:42.538Z,52.40
2022-11-28T20:24:45.584Z,48.35
2022-11-28T20:29:49.733Z,51.80
2022-11-28T20:34:52.475Z,49.80
2022-11-28T20:39:57.362Z,47.88
2022-11-28T20:45:01.511Z,44.85
2022-11-28T20:50:04.771Z,46.80
2022-11-28T20:55:09.071Z,43.85
2022-11-28T21:00:14.656Z,46.67
2022-11-28T21:05:17.696Z,45.90
2022-11-28T21:10:20.584Z,50.67
2022-11-28T21:15:25.372Z,58.20
2022-11-28T21:20:28.192Z,48.35
2022-11-28T21:25:31.005Z,52.88
2022-11-28T21:30:41.478Z,46.88
2022-11-28T21:35:44.237Z,46.67
2022-11-28T21:40:52.983Z,51.70
2022-11-28T21:46:02.267Z,56.50
2022-11-28T21:51:06.238Z,54.00
2022-11-28T21:56:11.081Z,62.30
2022-11-28T22:01:15.710Z,60.13
2022-11-28T22:06:21.703Z,58.70
2022-11-28T22:11:25.359Z,63.95
2022-11-28T22:16:30.354Z,60.33
2022-11-28T22:21:56.334Z,57.55
2022-11-28T22:26:59.792Z,57.10
2022-11-28T22:32:05.774Z,56.47
2022-11-28T22:37:09.119Z,61.40
2022-11-28T22:42:12.147Z,61.70
2022-11-28T22:47:16.800Z,59.15
2022-11-28T22:52:19.637Z,58.80
2022-11-28T22:57:22.484Z,52.10
2022-11-28T23:02:27.187Z,54.47
2022-11-28T23:07:30.437Z,55.58
2022-11-28T23:12:33.619Z,53.60
2022-11-28T23:17:38.111Z,62.50
2022-11-28T23:22:41.143Z,62.20
2022-11-28T23:27:43.955Z,58.22
2022-11-28T23:32:48.336Z,66.35
2022-11-28T23:37:51.115Z,62.70
2022-11-28T23:42:53.891Z,67.10
2022-11-28T23:47:58.042Z,62.47
2022-11-28T23:53:00.780Z,61.28
2022-11-28T23:58:03.515Z,62.05
